KEED/EED METAR and TAF weather

Enter ICAO airport designator
Station Type Date Time Source
KEED METAR 2022/01/26 13:56 UTC NOAA

KEED 261356Z AUTO 31005KT 10SM CLR 09/M07 A3022 RMK AO2 SLP224 T00891067


Station Type Date Time Source
KEED Decoded METAR 2022/01/26 13:56 UTC NOAA

NEEDLES AIRPORT, CA, United States (KEED) 34-46N 114-37W
Jan 26, 2022 - 08:56 AM EST / 2022.01.26 1356 UTC
Wind: from the NW (310 degrees) at 6 MPH (5 KT):0
Visibility: 10 mile(s):0
Sky conditions: clear
Temperature: 48.0 F (8.9 C)
Dew Point: 19.9 F (-6.7 C)
Relative Humidity: 32%
Pressure (altimeter): 30.22 in. Hg (1023 hPa)
ob: KEED 261356Z AUTO 31005KT 10SM CLR 09/M07 A3022 RMK AO2 SLP224 T00891067
cycle: 14

Station Type Date Time Source
KEED TAF 2022/01/26 12:22 UTC NOAA

TAF KEED 261120Z 2612/2712 34010KT P6SM SKC
FM261700 01016G24KT P6SM SKC
FM270200 34009KT P6SM SKC

Example: see airport list